sensor_id;sensor_type;location;lat;lon;timestamp;pressure;altitude;pressure_sealevel;temperature;humidity
11001;BME280;5553;48.506;8.870;2023-02-19T00:01:40;97026.72;;;9.02;100.00
11001;BME280;5553;48.506;8.870;2023-02-19T00:04:12;97026.34;;;9.06;100.00
11001;BME280;5553;48.506;8.870;2023-02-19T00:06:41;97018.31;;;8.99;100.00
11001;BME280;5553;48.506;8.870;2023-02-19T00:09:10;97020.13;;;8.98;100.00
11001;BME280;5553;48.506;8.870;2023-02-19T00:11:39;97014.84;;;8.98;100.00
11001;BME280;5553;48.506;8.870;2023-02-19T00:14:14;97007.28;;;9.04;100.00
11001;BME280;5553;48.506;8.870;2023-02-19T00:16:43;97005.66;;;9.02;100.00
11001;BME280;5553;48.506;8.870;2023-02-19T00:19:12;97010.56;;;9.06;100.00
11001;BME280;5553;48.506;8.870;2023-02-19T00:21:41;97013.53;;;9.11;100.00
11001;BME280;5553;48.506;8.870;2023-02-19T00:24:11;97007.63;;;9.00;100.00
11001;BME280;5553;48.506;8.870;2023-02-19T00:26:40;97008.59;;;9.08;100.00
11001;BME280;5553;48.506;8.870;2023-02-19T00:29:16;97012.56;;;9.04;100.00
11001;BME280;5553;48.506;8.870;2023-02-19T00:31:45;97009.13;;;8.95;100.00
11001;BME280;5553;48.506;8.870;2023-02-19T00:34:13;97002.88;;;8.96;100.00
11001;BME280;5553;48.506;8.870;2023-02-19T00:36:42;97007.47;;;8.94;100.00
11001;BME280;5553;48.506;8.870;2023-02-19T00:39:13;97005.50;;;8.96;100.00
11001;BME280;5553;48.506;8.870;2023-02-19T00:41:43;97003.69;;;8.96;100.00
11001;BME280;5553;48.506;8.870;2023-02-19T00:44:14;97003.66;;;9.05;100.00
11001;BME280;5553;48.506;8.870;2023-02-19T00:46:43;97010.59;;;8.97;100.00
11001;BME280;5553;48.506;8.870;2023-02-19T00:49:16;97010.94;;;9.02;100.00
11001;BME280;5553;48.506;8.870;2023-02-19T00:51:45;97000.66;;;9.16;100.00
11001;BME280;5553;48.506;8.870;2023-02-19T00:54:14;96999.22;;;9.05;100.00
11001;BME280;5553;48.506;8.870;2023-02-19T00:56:43;96997.25;;;9.07;100.00
11001;BME280;5553;48.506;8.870;2023-02-19T00:59:14;97002.31;;;9.09;100.00
11001;BME280;5553;48.506;8.870;2023-02-19T01:01:43;97011.75;;;9.03;100.00
11001;BME280;5553;48.506;8.870;2023-02-19T01:04:12;97006.13;;;9.06;100.00
11001;BME280;5553;48.506;8.870;2023-02-19T01:06:40;97005.28;;;9.06;100.00
11001;BME280;5553;48.506;8.870;2023-02-19T01:09:09;97005.28;;;9.06;100.00
11001;BME280;5553;48.506;8.870;2023-02-19T01:11:37;97009.25;;;9.01;100.00
11001;BME280;5553;48.506;8.870;2023-02-19T01:14:06;97001.88;;;8.97;100.00
11001;BME280;5553;48.506;8.870;2023-02-19T01:16:37;97002.38;;;9.00;100.00
11001;BME280;5553;48.506;8.870;2023-02-19T01:19:05;97010.22;;;9.09;100.00
11001;BME280;5553;48.506;8.870;2023-02-19T01:21:34;96997.78;;;8.94;100.00
11001;BME280;5553;48.506;8.870;2023-02-19T01:24:02;96988.06;;;8.95;100.00
11001;BME280;5553;48.506;8.870;2023-02-19T01:26:31;96991.34;;;8.97;100.00
11001;BME280;5553;48.506;8.870;2023-02-19T01:29:00;96996.97;;;8.94;100.00
11001;BME280;5553;48.506;8.870;2023-02-19T01:31:29;96998.78;;;8.93;100.00
11001;BME280;5553;48.506;8.870;2023-02-19T01:34:02;97005.19;;;8.91;100.00
11001;BME280;5553;48.506;8.870;2023-02-19T01:36:31;97002.88;;;8.88;100.00
11001;BME280;5553;48.506;8.870;2023-02-19T01:39:03;96994.00;;;8.89;100.00
11001;BME280;5553;48.506;8.870;2023-02-19T01:41:34;96996.50;;;8.82;100.00
11001;BME280;5553;48.506;8.870;2023-02-19T01:44:05;96990.72;;;8.78;100.00
11001;BME280;5553;48.506;8.870;2023-02-19T01:46:36;96984.34;;;8.73;100.00
11001;BME280;5553;48.506;8.870;2023-02-19T01:49:10;96978.56;;;8.77;100.00
11001;BME280;5553;48.506;8.870;2023-02-19T01:51:43;96975.13;;;8.77;100.00
11001;BME280;5553;48.506;8.870;2023-02-19T01:54:14;96979.56;;;8.76;100.00
11001;BME280;5553;48.506;8.870;2023-02-19T01:56:45;96977.47;;;8.72;100.00
11001;BME280;5553;48.506;8.870;2023-02-19T01:59:16;96969.19;;;8.83;100.00
11001;BME280;5553;48.506;8.870;2023-02-19T02:01:45;96960.50;;;8.83;100.00
11001;BME280;5553;48.506;8.870;2023-02-19T02:04:17;96957.38;;;8.79;100.00
11001;BME280;5553;48.506;8.870;2023-02-19T02:06:48;96945.53;;;8.75;100.00
11001;BME280;5553;48.506;8.870;2023-02-19T02:09:19;96960.19;;;8.69;100.00
11001;BME280;5553;48.506;8.870;2023-02-19T02:12:00;96955.22;;;8.74;100.00
11001;BME280;5553;48.506;8.870;2023-02-19T02:14:30;96954.13;;;8.69;100.00
11001;BME280;5553;48.506;8.870;2023-02-19T02:17:07;96967.94;;;8.63;100.00
11001;BME280;5553;48.506;8.870;2023-02-19T02:20:00;96973.69;;;8.66;100.00
11001;BME280;5553;48.506;8.870;2023-02-19T02:22:32;96974.81;;;8.64;100.00
11001;BME280;5553;48.506;8.870;2023-02-19T02:25:19;96972.88;;;8.58;100.00
11001;BME280;5553;48.506;8.870;2023-02-19T02:28:00;96971.75;;;8.52;100.00
11001;BME280;5553;48.506;8.870;2023-02-19T02:30:41;96967.97;;;8.46;100.00
11001;BME280;5553;48.506;8.870;2023-02-19T02:33:20;96959.22;;;8.54;100.00
11001;BME280;5553;48.506;8.870;2023-02-19T02:35:53;96961.69;;;8.47;100.00
11001;BME280;5553;48.506;8.870;2023-02-19T02:38:24;96959.09;;;8.39;100.00
11001;BME280;5553;48.506;8.870;2023-02-19T02:40:55;96954.84;;;8.38;100.00
11001;BME280;5553;48.506;8.870;2023-02-19T02:43:24;96949.25;;;8.41;100.00
11001;BME280;5553;48.506;8.870;2023-02-19T02:45:55;96943.63;;;8.36;100.00
11001;BME280;5553;48.506;8.870;2023-02-19T02:48:27;96941.66;;;8.30;100.00
11001;BME280;5553;48.506;8.870;2023-02-19T02:51:05;96945.59;;;8.26;100.00
11001;BME280;5553;48.506;8.870;2023-02-19T02:53:37;96942.84;;;8.27;100.00
11001;BME280;5553;48.506;8.870;2023-02-19T02:56:21;96941.97;;;8.27;100.00
11001;BME280;5553;48.506;8.870;2023-02-19T02:58:51;96936.06;;;8.17;100.00
11001;BME280;5553;48.506;8.870;2023-02-19T03:01:25;96931.50;;;8.11;100.00
11001;BME280;5553;48.506;8.870;2023-02-19T03:04:11;96924.44;;;8.11;100.00
11001;BME280;5553;48.506;8.870;2023-02-19T03:06:41;96912.63;;;8.07;100.00
11001;BME280;5553;48.506;8.870;2023-02-19T03:09:14;96918.84;;;8.06;100.00
11001;BME280;5553;48.506;8.870;2023-02-19T03:11:48;96928.56;;;7.97;100.00
11001;BME280;5553;48.506;8.870;2023-02-19T03:14:32;96926.06;;;7.96;100.00
11001;BME280;5553;48.506;8.870;2023-02-19T03:17:21;96937.06;;;7.99;100.00
11001;BME280;5553;48.506;8.870;2023-02-19T03:20:07;96933.47;;;7.92;100.00
11001;BME280;5553;48.506;8.870;2023-02-19T03:22:39;96938.56;;;7.94;100.00
11001;BME280;5553;48.506;8.870;2023-02-19T03:25:11;96927.22;;;7.85;100.00
11001;BME280;5553;48.506;8.870;2023-02-19T03:28:00;96926.41;;;7.84;100.00
11001;BME280;5553;48.506;8.870;2023-02-19T03:30:32;96933.78;;;7.89;100.00
11001;BME280;5553;48.506;8.870;2023-02-19T03:33:06;96926.41;;;7.84;100.00
11001;BME280;5553;48.506;8.870;2023-02-19T03:38:56;96931.97;;;7.90;100.00
11001;BME280;5553;48.506;8.870;2023-02-19T03:41:31;96938.41;;;7.87;100.00
11001;BME280;5553;48.506;8.870;2023-02-19T03:44:06;96933.97;;;7.96;100.00
11001;BME280;5553;48.506;8.870;2023-02-19T03:46:43;96924.28;;;7.88;100.00
11001;BME280;5553;48.506;8.870;2023-02-19T03:49:21;96934.28;;;7.84;100.00
11001;BME280;5553;48.506;8.870;2023-02-19T03:51:56;96938.56;;;7.86;100.00
11001;BME280;5553;48.506;8.870;2023-02-19T03:54:33;96946.94;;;7.81;100.00
11001;BME280;5553;48.506;8.870;2023-02-19T03:57:10;96947.94;;;7.80;100.00
11001;BME280;5553;48.506;8.870;2023-02-19T03:59:45;96944.81;;;7.76;100.00
11001;BME280;5553;48.506;8.870;2023-02-19T04:02:21;96943.47;;;7.72;100.00
11001;BME280;5553;48.506;8.870;2023-02-19T04:04:59;96946.94;;;7.73;100.00
11001;BME280;5553;48.506;8.870;2023-02-19T04:07:32;96947.41;;;7.68;100.00
11001;BME280;5553;48.506;8.870;2023-02-19T04:10:03;96947.09;;;7.71;100.00
11001;BME280;5553;48.506;8.870;2023-02-19T04:12:32;96949.41;;;7.66;100.00
11001;BME280;5553;48.506;8.870;2023-02-19T04:15:05;96947.56;;;7.58;100.00
11001;BME280;5553;48.506;8.870;2023-02-19T04:17:37;96948.72;;;7.56;100.00
11001;BME280;5553;48.506;8.870;2023-02-19T04:20:11;96949.69;;;7.55;100.00
11001;BME280;5553;48.506;8.870;2023-02-19T04:22:41;96951.16;;;7.57;100.00
11001;BME280;5553;48.506;8.870;2023-02-19T04:25:10;96957.41;;;7.56;100.00
11001;BME280;5553;48.506;8.870;2023-02-19T04:27:39;96964.94;;;7.51;100.00
11001;BME280;5553;48.506;8.870;2023-02-19T04:30:10;96963.97;;;7.52;100.00
11001;BME280;5553;48.506;8.870;2023-02-19T04:32:39;96967.88;;;7.48;100.00
11001;BME280;5553;48.506;8.870;2023-02-19T04:35:10;96979.22;;;7.49;100.00
11001;BME280;5553;48.506;8.870;2023-02-19T04:37:38;96968.88;;;7.47;100.00
11001;BME280;5553;48.506;8.870;2023-02-19T04:40:08;96971.69;;;7.46;100.00
11001;BME280;5553;48.506;8.870;2023-02-19T04:42:36;96965.44;;;7.47;100.00
11001;BME280;5553;48.506;8.870;2023-02-19T04:45:05;96978.72;;;7.45;100.00
11001;BME280;5553;48.506;8.870;2023-02-19T04:47:34;96985.94;;;7.43;100.00
11001;BME280;5553;48.506;8.870;2023-02-19T04:50:02;96988.06;;;7.48;100.00
11001;BME280;5553;48.506;8.870;2023-02-19T04:52:34;96983.81;;;7.47;100.00
11001;BME280;5553;48.506;8.870;2023-02-19T04:55:04;96988.56;;;7.43;100.00
11001;BME280;5553;48.506;8.870;2023-02-19T04:57:33;96993.13;;;7.41;100.00
11001;BME280;5553;48.506;8.870;2023-02-19T05:00:01;97001.00;;;7.41;100.00
11001;BME280;5553;48.506;8.870;2023-02-19T05:02:30;96998.06;;;7.44;100.00
11001;BME280;5553;48.506;8.870;2023-02-19T05:04:58;96999.38;;;7.40;100.00
11001;BME280;5553;48.506;8.870;2023-02-19T05:07:26;96992.50;;;7.39;100.00
11001;BME280;5553;48.506;8.870;2023-02-19T05:09:57;97001.66;;;7.35;100.00
11001;BME280;5553;48.506;8.870;2023-02-19T05:12:25;97003.63;;;7.33;100.00
11001;BME280;5553;48.506;8.870;2023-02-19T05:14:54;97002.63;;;7.34;100.00
11001;BME280;5553;48.506;8.870;2023-02-19T05:17:22;97008.69;;;7.34;100.00
11001;BME280;5553;48.506;8.870;2023-02-19T05:19:50;97011.81;;;7.30;100.00
11001;BME280;5553;48.506;8.870;2023-02-19T05:22:18;97009.88;;;7.32;100.00
11001;BME280;5553;48.506;8.870;2023-02-19T05:24:47;97011.00;;;7.29;100.00
11001;BME280;5553;48.506;8.870;2023-02-19T05:27:17;97012.94;;;7.27;100.00
11001;BME280;5553;48.506;8.870;2023-02-19T05:29:46;97016.88;;;7.23;100.00
11001;BME280;5553;48.506;8.870;2023-02-19T05:32:14;97025.09;;;7.28;100.00
11001;BME280;5553;48.506;8.870;2023-02-19T05:34:42;97033.44;;;7.24;100.00
11001;BME280;5553;48.506;8.870;2023-02-19T05:37:10;97033.13;;;7.27;100.00
11001;BME280;5553;48.506;8.870;2023-02-19T05:39:39;97028.69;;;7.27;100.00
11001;BME280;5553;48.506;8.870;2023-02-19T05:42:07;97035.75;;;7.27;100.00
11001;BME280;5553;48.506;8.870;2023-02-19T05:44:38;97035.91;;;7.25;100.00
11001;BME280;5553;48.506;8.870;2023-02-19T05:47:06;97028.19;;;7.24;100.00
11001;BME280;5553;48.506;8.870;2023-02-19T05:49:34;97025.94;;;7.29;100.00
11001;BME280;5553;48.506;8.870;2023-02-19T05:52:03;97030.81;;;7.24;100.00
11001;BME280;5553;48.506;8.870;2023-02-19T05:54:31;97024.06;;;7.21;100.00
11001;BME280;5553;48.506;8.870;2023-02-19T05:56:59;97036.13;;;7.32;100.00
11001;BME280;5553;48.506;8.870;2023-02-19T05:59:28;97018.38;;;7.26;100.00
11001;BME280;5553;48.506;8.870;2023-02-19T06:01:59;97027.25;;;7.33;100.00
11001;BME280;5553;48.506;8.870;2023-02-19T06:04:27;97042.56;;;7.46;100.00
11001;BME280;5553;48.506;8.870;2023-02-19T06:06:55;97026.94;;;7.36;100.00
11001;BME280;5553;48.506;8.870;2023-02-19T06:09:24;97025.13;;;7.45;100.00
11001;BME280;5553;48.506;8.870;2023-02-19T06:11:52;97028.25;;;7.40;100.00
11001;BME280;5553;48.506;8.870;2023-02-19T06:14:20;97031.56;;;7.42;100.00
11001;BME280;5553;48.506;8.870;2023-02-19T06:16:49;97034.13;;;7.26;100.00
11001;BME280;5553;48.506;8.870;2023-02-19T06:19:20;97028.88;;;7.34;100.00
11001;BME280;5553;48.506;8.870;2023-02-19T06:21:48;97033.59;;;7.22;100.00
11001;BME280;5553;48.506;8.870;2023-02-19T06:24:17;97035.41;;;7.22;100.00
11001;BME280;5553;48.506;8.870;2023-02-19T06:26:45;97050.50;;;7.28;100.00
11001;BME280;5553;48.506;8.870;2023-02-19T06:29:13;97062.16;;;7.25;100.00
11001;BME280;5553;48.506;8.870;2023-02-19T06:31:41;97072.78;;;7.16;100.00
11001;BME280;5553;48.506;8.870;2023-02-19T06:34:10;97073.28;;;7.19;100.00
11001;BME280;5553;48.506;8.870;2023-02-19T06:36:41;97087.53;;;7.17;100.00
11001;BME280;5553;48.506;8.870;2023-02-19T06:39:09;97096.72;;;7.21;100.00
11001;BME280;5553;48.506;8.870;2023-02-19T06:41:37;97111.75;;;7.10;100.00
11001;BME280;5553;48.506;8.870;2023-02-19T06:44:05;97128.50;;;7.09;100.00
11001;BME280;5553;48.506;8.870;2023-02-19T06:46:34;97116.16;;;7.02;100.00
11001;BME280;5553;48.506;8.870;2023-02-19T06:49:03;97134.91;;;6.89;100.00
11001;BME280;5553;48.506;8.870;2023-02-19T06:51:31;97149.00;;;6.88;100.00
11001;BME280;5553;48.506;8.870;2023-02-19T06:54:02;97147.97;;;6.81;100.00
11001;BME280;5553;48.506;8.870;2023-02-19T06:56:32;97144.69;;;6.79;100.00
11001;BME280;5553;48.506;8.870;2023-02-19T06:59:04;97153.22;;;6.81;100.00
11001;BME280;5553;48.506;8.870;2023-02-19T07:01:33;97144.34;;;7.00;100.00
11001;BME280;5553;48.506;8.870;2023-02-19T07:04:03;97148.72;;;6.91;100.00
11001;BME280;5553;48.506;8.870;2023-02-19T07:06:32;97146.44;;;6.96;100.00
11001;BME280;5553;48.506;8.870;2023-02-19T07:09:05;97160.53;;;6.95;100.00
11001;BME280;5553;48.506;8.870;2023-02-19T07:11:35;97162.47;;;6.93;100.00
11001;BME280;5553;48.506;8.870;2023-02-19T07:14:05;97160.84;;;6.92;100.00
11001;BME280;5553;48.506;8.870;2023-02-19T07:16:35;97163.63;;;6.91;100.00
11001;BME280;5553;48.506;8.870;2023-02-19T07:19:03;97174.41;;;7.05;100.00
11001;BME280;5553;48.506;8.870;2023-02-19T07:21:31;97169.88;;;7.16;100.00
11001;BME280;5553;48.506;8.870;2023-02-19T07:24:05;97172.06;;;7.02;100.00
11001;BME280;5553;48.506;8.870;2023-02-19T07:26:33;97181.66;;;6.94;100.00
11001;BME280;5553;48.506;8.870;2023-02-19T07:29:02;97161.63;;;7.10;100.00
11001;BME280;5553;48.506;8.870;2023-02-19T07:31:32;97158.19;;;7.10;100.00
11001;BME280;5553;48.506;8.870;2023-02-19T07:34:00;97153.09;;;7.08;100.00
11001;BME280;5553;48.506;8.870;2023-02-19T07:36:28;97152.22;;;7.26;100.00
11001;BME280;5553;48.506;8.870;2023-02-19T07:38:58;97145.63;;;7.22;100.00
11001;BME280;5553;48.506;8.870;2023-02-19T07:41:29;97143.97;;;7.21;100.00
11001;BME280;5553;48.506;8.870;2023-02-19T07:43:57;97155.63;;;7.18;100.00
11001;BME280;5553;48.506;8.870;2023-02-19T07:46:26;97150.88;;;7.22;100.00
11001;BME280;5553;48.506;8.870;2023-02-19T07:48:54;97155.50;;;7.28;100.00
11001;BME280;5553;48.506;8.870;2023-02-19T07:51:23;97145.19;;;7.34;100.00
11001;BME280;5553;48.506;8.870;2023-02-19T07:53:51;97142.44;;;7.36;100.00
11001;BME280;5553;48.506;8.870;2023-02-19T07:56:19;97151.91;;;7.29;100.00
11001;BME280;5553;48.506;8.870;2023-02-19T07:58:50;97158.28;;;7.26;100.00
11001;BME280;5553;48.506;8.870;2023-02-19T08:01:20;97166.34;;;7.25;100.00
11001;BME280;5553;48.506;8.870;2023-02-19T08:04:11;97166.00;;;7.28;100.00
11001;BME280;5553;48.506;8.870;2023-02-19T08:06:38;97176.84;;;7.25;100.00
11001;BME280;5553;48.506;8.870;2023-02-19T08:09:07;97183.72;;;7.26;100.00
11001;BME280;5553;48.506;8.870;2023-02-19T08:11:35;97183.25;;;7.30;100.00
11001;BME280;5553;48.506;8.870;2023-02-19T08:14:19;97179.28;;;7.26;100.00
11001;BME280;5553;48.506;8.870;2023-02-19T08:16:47;97190.91;;;7.24;100.00
11001;BME280;5553;48.506;8.870;2023-02-19T08:19:16;97194.53;;;7.23;100.00
11001;BME280;5553;48.506;8.870;2023-02-19T08:21:45;97188.25;;;7.16;100.00
11001;BME280;5553;48.506;8.870;2023-02-19T08:24:15;97188.53;;;7.12;100.00
11001;BME280;5553;48.506;8.870;2023-02-19T08:26:43;97200.91;;;7.20;100.00
11001;BME280;5553;48.506;8.870;2023-02-19T08:29:11;97198.13;;;7.22;100.00
11001;BME280;5553;48.506;8.870;2023-02-19T08:31:42;97193.59;;;7.32;100.00
11001;BME280;5553;48.506;8.870;2023-02-19T08:34:10;97192.44;;;7.34;100.00
11001;BME280;5553;48.506;8.870;2023-02-19T08:36:39;97188.88;;;7.35;100.00
11001;BME280;5553;48.506;8.870;2023-02-19T08:39:08;97191.31;;;7.37;100.00
11001;BME280;5553;48.506;8.870;2023-02-19T08:41:36;97209.41;;;7.40;100.00
11001;BME280;5553;48.506;8.870;2023-02-19T08:44:04;97200.19;;;7.36;100.00
11001;BME280;5553;48.506;8.870;2023-02-19T08:46:33;97199.19;;;7.37;100.00
11001;BME280;5553;48.506;8.870;2023-02-19T08:49:04;97194.63;;;7.39;100.00
11001;BME280;5553;48.506;8.870;2023-02-19T08:51:32;97195.66;;;7.46;100.00
11001;BME280;5553;48.506;8.870;2023-02-19T08:54:01;97196.31;;;7.48;100.00
11001;BME280;5553;48.506;8.870;2023-02-19T08:56:30;97205.03;;;7.49;100.00
11001;BME280;5553;48.506;8.870;2023-02-19T08:58:58;97209.75;;;7.45;100.00
11001;BME280;5553;48.506;8.870;2023-02-19T09:01:26;97220.06;;;7.39;100.00
11001;BME280;5553;48.506;8.870;2023-02-19T09:03:54;97225.50;;;7.45;100.00
11001;BME280;5553;48.506;8.870;2023-02-19T09:06:25;97221.91;;;7.46;100.00
11001;BME280;5553;48.506;8.870;2023-02-19T09:08:54;97229.78;;;7.46;100.00
11001;BME280;5553;48.506;8.870;2023-02-19T09:11:22;97225.88;;;7.50;100.00
11001;BME280;5553;48.506;8.870;2023-02-19T09:13:50;97236.53;;;7.49;100.00
11001;BME280;5553;48.506;8.870;2023-02-19T09:16:18;97240.34;;;7.54;100.00
11001;BME280;5553;48.506;8.870;2023-02-19T09:18:47;97236.28;;;7.60;100.00
11001;BME280;5553;48.506;8.870;2023-02-19T09:21:15;97234.31;;;7.62;100.00
11001;BME280;5553;48.506;8.870;2023-02-19T09:23:46;97240.22;;;7.64;100.00
11001;BME280;5553;48.506;8.870;2023-02-19T09:26:14;97232.53;;;7.63;100.00
11001;BME280;5553;48.506;8.870;2023-02-19T09:28:42;97237.78;;;7.63;100.00
11001;BME280;5553;48.506;8.870;2023-02-19T09:31:12;97246.91;;;7.58;100.00
11001;BME280;5553;48.506;8.870;2023-02-19T09:33:41;97250.84;;;7.54;100.00
11001;BME280;5553;48.506;8.870;2023-02-19T09:36:11;97254.75;;;7.50;100.00
11001;BME280;5553;48.506;8.870;2023-02-19T09:38:39;97259.78;;;7.44;100.00
11001;BME280;5553;48.506;8.870;2023-02-19T09:41:14;97263.72;;;7.40;100.00
11001;BME280;5553;48.506;8.870;2023-02-19T09:43:45;97270.38;;;7.34;100.00
11001;BME280;5553;48.506;8.870;2023-02-19T09:46:21;97281.47;;;7.28;100.00
11001;BME280;5553;48.506;8.870;2023-02-19T09:48:52;97289.59;;;7.17;100.00
11001;BME280;5553;48.506;8.870;2023-02-19T09:51:21;97304.91;;;7.03;100.00
11001;BME280;5553;48.506;8.870;2023-02-19T09:53:53;97318.78;;;6.96;100.00
11001;BME280;5553;48.506;8.870;2023-02-19T09:56:26;97324.47;;;6.91;100.00
11001;BME280;5553;48.506;8.870;2023-02-19T09:58:56;97329.09;;;6.79;100.00
11001;BME280;5553;48.506;8.870;2023-02-19T10:01:29;97339.22;;;6.74;100.00
11001;BME280;5553;48.506;8.870;2023-02-19T10:03:59;97332.81;;;6.77;100.00
11001;BME280;5553;48.506;8.870;2023-02-19T10:06:28;97340.69;;;6.77;100.00
11001;BME280;5553;48.506;8.870;2023-02-19T10:09:09;97348.44;;;6.78;100.00
11001;BME280;5553;48.506;8.870;2023-02-19T10:11:41;97350.22;;;6.78;100.00
11001;BME280;5553;48.506;8.870;2023-02-19T10:14:15;97362.81;;;6.74;100.00
11001;BME280;5553;48.506;8.870;2023-02-19T10:16:45;97357.81;;;6.81;100.00
11001;BME280;5553;48.506;8.870;2023-02-19T10:19:15;97366.97;;;6.95;100.00
11001;BME280;5553;48.506;8.870;2023-02-19T10:21:44;97366.91;;;7.04;100.00
11001;BME280;5553;48.506;8.870;2023-02-19T10:24:19;97360.16;;;7.20;100.00
11001;BME280;5553;48.506;8.870;2023-02-19T10:26:51;97363.94;;;7.35;100.00
11001;BME280;5553;48.506;8.870;2023-02-19T10:29:20;97357.84;;;7.52;100.00
11001;BME280;5553;48.506;8.870;2023-02-19T10:32:10;97362.16;;;7.62;100.00
11001;BME280;5553;48.506;8.870;2023-02-19T10:34:41;97353.94;;;7.56;100.00
11001;BME280;5553;48.506;8.870;2023-02-19T10:37:13;97355.19;;;7.70;100.00
11001;BME280;5553;48.506;8.870;2023-02-19T10:39:44;97343.22;;;7.76;100.00
11001;BME280;5553;48.506;8.870;2023-02-19T10:42:18;97332.63;;;7.86;100.00
11001;BME280;5553;48.506;8.870;2023-02-19T10:44:51;97318.53;;;7.87;100.00
11001;BME280;5553;48.506;8.870;2023-02-19T10:47:24;97312.44;;;7.86;100.00
11001;BME280;5553;48.506;8.870;2023-02-19T10:49:56;97320.88;;;7.98;100.00
11001;BME280;5553;48.506;8.870;2023-02-19T10:52:26;97330.47;;;8.07;100.00
11001;BME280;5553;48.506;8.870;2023-02-19T10:55:13;97327.34;;;8.03;100.00
11001;BME280;5553;48.506;8.870;2023-02-19T10:57:44;97314.50;;;8.00;100.00
11001;BME280;5553;48.506;8.870;2023-02-19T11:00:22;97315.22;;;8.11;100.00
11001;BME280;5553;48.506;8.870;2023-02-19T11:03:13;97309.88;;;7.94;100.00
11001;BME280;5553;48.506;8.870;2023-02-19T11:05:50;97298.75;;;8.00;100.00
11001;BME280;5553;48.506;8.870;2023-02-19T11:08:21;97292.84;;;8.06;100.00
11001;BME280;5553;48.506;8.870;2023-02-19T11:10:50;97293.81;;;8.05;100.00
11001;BME280;5553;48.506;8.870;2023-02-19T11:13:26;97284.31;;;8.04;100.00
11001;BME280;5553;48.506;8.870;2023-02-19T11:15:57;97277.72;;;8.00;100.00
11001;BME280;5553;48.506;8.870;2023-02-19T11:18:27;97270.47;;;8.02;100.00
11001;BME280;5553;48.506;8.870;2023-02-19T11:20:58;97264.41;;;8.02;100.00
11001;BME280;5553;48.506;8.870;2023-02-19T11:23:29;97271.19;;;8.13;100.00
11001;BME280;5553;48.506;8.870;2023-02-19T11:26:00;97267.59;;;8.14;100.00
11001;BME280;5553;48.506;8.870;2023-02-19T11:28:35;97244.88;;;8.04;100.00
11001;BME280;5553;48.506;8.870;2023-02-19T11:31:21;97251.47;;;8.08;100.00
11001;BME280;5553;48.506;8.870;2023-02-19T11:33:55;97267.13;;;8.18;100.00
11001;BME280;5553;48.506;8.870;2023-02-19T11:36:26;97263.16;;;8.14;100.00
11001;BME280;5553;48.506;8.870;2023-02-19T11:38:56;97269.69;;;8.10;100.00
11001;BME280;5553;48.506;8.870;2023-02-19T11:44:27;97251.63;;;8.07;100.00
11001;BME280;5553;48.506;8.870;2023-02-19T11:47:38;97256.38;;;8.03;100.00
11001;BME280;5553;48.506;8.870;2023-02-19T11:50:19;97253.38;;;7.98;100.00
11001;BME280;5553;48.506;8.870;2023-02-19T11:52:59;97264.91;;;8.05;100.00
11001;BME280;5553;48.506;8.870;2023-02-19T11:55:40;97263.38;;;8.29;100.00
11001;BME280;5553;48.506;8.870;2023-02-19T11:58:31;97270.03;;;8.41;100.00
11001;BME280;5553;48.506;8.870;2023-02-19T12:01:09;97264.06;;;8.31;100.00
11001;BME280;5553;48.506;8.870;2023-02-19T12:04:09;97274.31;;;8.42;100.00
11001;BME280;5553;48.506;8.870;2023-02-19T12:06:56;97262.16;;;8.41;100.00
11001;BME280;5553;48.506;8.870;2023-02-19T12:09:34;97268.72;;;8.45;100.00
11001;BME280;5553;48.506;8.870;2023-02-19T12:12:19;97274.44;;;8.41;100.00
11001;BME280;5553;48.506;8.870;2023-02-19T12:18:04;97277.81;;;8.25;100.00
11001;BME280;5553;48.506;8.870;2023-02-19T18:06:13;97491.03;;;5.91;100.00
11001;BME280;5553;48.506;8.870;2023-02-19T18:08:46;97491.31;;;5.88;100.00
11001;BME280;5553;48.506;8.870;2023-02-19T18:11:15;97498.31;;;5.88;100.00
11001;BME280;5553;48.506;8.870;2023-02-19T18:13:43;97506.22;;;5.98;100.00
11001;BME280;5553;48.506;8.870;2023-02-19T18:16:12;97510.09;;;5.93;100.00
11001;BME280;5553;48.506;8.870;2023-02-19T18:18:41;97517.94;;;5.93;100.00
11001;BME280;5553;48.506;8.870;2023-02-19T18:21:14;97532.97;;;5.91;100.00
11001;BME280;5553;48.506;8.870;2023-02-19T18:23:42;97533.06;;;5.90;100.00
11001;BME280;5553;48.506;8.870;2023-02-19T18:26:11;97541.75;;;5.90;100.00
11001;BME280;5553;48.506;8.870;2023-02-19T18:28:39;97542.72;;;5.89;100.00
11001;BME280;5553;48.506;8.870;2023-02-19T18:31:07;97548.09;;;5.88;100.00
11001;BME280;5553;48.506;8.870;2023-02-19T18:33:35;97550.03;;;5.86;100.00
11001;BME280;5553;48.506;8.870;2023-02-19T18:36:09;97551.41;;;5.90;100.00
11001;BME280;5553;48.506;8.870;2023-02-19T18:38:40;97553.63;;;5.85;100.00
11001;BME280;5553;48.506;8.870;2023-02-19T18:41:10;97557.19;;;5.84;100.00
11001;BME280;5553;48.506;8.870;2023-02-19T18:43:39;97548.66;;;5.82;100.00
11001;BME280;5553;48.506;8.870;2023-02-19T18:46:08;97551.28;;;5.82;100.00
11001;BME280;5553;48.506;8.870;2023-02-19T18:48:37;97556.53;;;5.91;100.00
11001;BME280;5553;48.506;8.870;2023-02-19T18:51:08;97560.06;;;5.81;100.00
11001;BME280;5553;48.506;8.870;2023-02-19T18:53:37;97561.88;;;5.80;100.00
11001;BME280;5553;48.506;8.870;2023-02-19T18:56:08;97554.84;;;5.81;100.00
11001;BME280;5553;48.506;8.870;2023-02-19T18:58:36;97563.13;;;5.86;100.00
11001;BME280;5553;48.506;8.870;2023-02-19T19:01:04;97562.47;;;5.93;100.00
11001;BME280;5553;48.506;8.870;2023-02-19T19:03:32;97565.22;;;5.92;100.00
11001;BME280;5553;48.506;8.870;2023-02-19T19:06:01;97561.19;;;5.88;100.00
11001;BME280;5553;48.506;8.870;2023-02-19T19:08:29;97565.47;;;5.89;100.00
11001;BME280;5553;48.506;8.870;2023-02-19T19:10:57;97562.97;;;5.87;100.00
11001;BME280;5553;48.506;8.870;2023-02-19T19:13:28;97563.13;;;5.86;100.00
11001;BME280;5553;48.506;8.870;2023-02-19T19:15:56;97562.72;;;5.90;100.00
11001;BME280;5553;48.506;8.870;2023-02-19T19:18:24;97564.50;;;5.90;100.00
11001;BME280;5553;48.506;8.870;2023-02-19T19:20:54;97559.72;;;6.05;100.00
11001;BME280;5553;48.506;8.870;2023-02-19T19:23:27;97567.19;;;6.09;100.00
11001;BME280;5553;48.506;8.870;2023-02-19T19:25:55;97559.88;;;6.03;100.00
11001;BME280;5553;48.506;8.870;2023-02-19T19:28:24;97557.63;;;6.08;100.00